»·PEaware :: N761FG KTOA-KVNY

N761FG :: KTOA-KVNY

FLIGHT INFORMATION

Flight Status: Arrived
Operator: Privately registered:
United States
More flights under this callsign
Pilot: Glenn W. (23047)
Aircraft: CESSNA 172 SKYHAWK
(C172)
More flights by this aircraft type
Origin: KTOA Zamperini
United States
Destination: KVNY Van Nuys
United States
More flights between these airports :: More routes between these airports
Route: LAX170 LIMBO V64 SMO125 SMO SMO317 CANOG
File this flight plan on PilotEdge
Remarks: Sky high charters - Scenario 1
Altitude:
(Current/Filed)
4,000ft
Speed:
(Current/Filed)
110kts
Departed: 23-Dec-19 10:30 AM
Arrived: 23-Dec-19 12:03 PM
Distance/Time
Traveled:
26nm/1:33
Distance/Time
To Go:
Arrived

Flight Plot

Page will automatically refresh every two minutes.

Flight plan parsing failed; only flown route is shown


Map Options




Map Legend


Flown Route
Filed Route
Departure Airport
Arrival Airport
Navaid (VOR, NDB)
Fix

Horizontal Profiles

Position Reports

Time Latitude Longitude Heading Altitude Ground
Speed
23-Dec-19 10:19 33.799143 -118.337791 98 108ft 0kts
23-Dec-19 10:20 33.799143 -118.337791 98 108ft 0kts
23-Dec-19 10:21 33.799143 -118.337791 98 108ft 0kts
23-Dec-19 10:22 33.799143 -118.337791 98 108ft 0kts
23-Dec-19 10:23 33.799143 -118.337791 98 108ft 0kts
23-Dec-19 10:24 33.799143 -118.337791 98 108ft 0kts
23-Dec-19 10:25 33.799143 -118.337791 98 108ft 0kts
23-Dec-19 10:26 33.799143 -118.337791 98 108ft 0kts
23-Dec-19 10:27 33.799741 -118.336854 37 104ft 0kts
23-Dec-19 10:28 33.800163 -118.336531 359 102ft 4kts
23-Dec-19 10:29 33.809912 -118.352202 307 662ft 78kts
23-Dec-19 10:30 33.824245 -118.373211 309 1619ft 81kts
23-Dec-19 10:31 33.838899 -118.394570 309 2525ft 82kts
23-Dec-19 10:32 33.853791 -118.416019 312 3371ft 83kts
23-Dec-19 10:33 33.858816 -118.440554 217 3990ft 103kts
23-Dec-19 10:34 33.826219 -118.444950 183 4020ft 130kts
23-Dec-19 10:35 33.789880 -118.448435 185 4012ft 132kts
23-Dec-19 10:36 33.755625 -118.443467 119 4040ft 130kts
23-Dec-19 10:37 33.760118 -118.401088 78 4057ft 131kts
23-Dec-19 10:38 33.763985 -118.356985 85 4028ft 132kts
23-Dec-19 10:39 33.766292 -118.312918 86 4039ft 131kts
23-Dec-19 10:40 33.768723 -118.268441 85 4027ft 132kts
23-Dec-19 10:41 33.772193 -118.224532 67 4013ft 117kts
23-Dec-19 10:42 33.794060 -118.227367 315 4041ft 101kts
23-Dec-19 10:43 33.817942 -118.256019 315 4011ft 131kts
23-Dec-19 10:44 33.844573 -118.286267 318 4104ft 127kts
23-Dec-19 10:45 33.872489 -118.315755 320 4017ft 133kts
23-Dec-19 10:46 33.901317 -118.344575 320 4024ft 131kts
23-Dec-19 10:47 33.930023 -118.373079 320 4033ft 131kts
23-Dec-19 10:48 33.958738 -118.401633 319 4039ft 131kts
23-Dec-19 10:49 33.987053 -118.430561 320 4040ft 131kts
23-Dec-19 10:50 34.015488 -118.458506 329 4031ft 131kts
23-Dec-19 10:51 34.047398 -118.480179 331 4046ft 131kts
23-Dec-19 10:53 34.079441 -118.501608 331 4059ft 131kts
23-Dec-19 10:54 34.111587 -118.521696 348 4297ft 111kts
23-Dec-19 10:55 34.137723 -118.526141 352 5021ft 108kts
23-Dec-19 10:56 34.171664 -118.531661 352 5019ft 128kts
23-Dec-19 10:57 34.207403 -118.537453 352 5030ft 130kts
23-Dec-19 10:58 34.243492 -118.543256 352 5006ft 131kts
23-Dec-19 10:59 34.279640 -118.548998 352 5003ft 130kts
23-Dec-19 11:00 34.315575 -118.554578 353 5022ft 130kts
23-Dec-19 11:01 34.351542 -118.560094 352 5017ft 131kts
23-Dec-19 11:02 34.387642 -118.565699 352 5042ft 129kts
23-Dec-19 11:03 34.420832 -118.560112 66 5017ft 130kts
23-Dec-19 11:04 34.417198 -118.520245 142 4997ft 116kts
23-Dec-19 11:05 34.391360 -118.509445 166 4307ft 85kts
23-Dec-19 11:06 34.366525 -118.505395 167 3784ft 96kts
23-Dec-19 11:07 34.342573 -118.502077 176 3262ft 94kts
23-Dec-19 11:08 34.313222 -118.500188 177 2627ft 107kts
23-Dec-19 11:09 34.285717 -118.497853 175 2006ft 92kts
23-Dec-19 11:10 34.260899 -118.495255 175 1460ft 86kts
23-Dec-19 11:10 34.239669 -118.493205 177 1142ft 88kts
23-Dec-19 11:12 34.211027 -118.489825 172 1381ft 96kts
23-Dec-19 11:13 34.183485 -118.479907 131 1819ft 122kts
23-Dec-19 11:13 34.159712 -118.471058 166 2577ft 101kts
23-Dec-19 11:14 34.134273 -118.464015 166 3512ft 87kts
23-Dec-19 11:16 34.106169 -118.456789 169 4421ft 91kts
23-Dec-19 11:16 34.082242 -118.455419 181 4606ft 123kts
23-Dec-19 11:17 34.046173 -118.456593 181 4593ft 131kts
23-Dec-19 11:18 34.014541 -118.468903 254 4560ft 112kts
23-Dec-19 11:19 34.020421 -118.507634 283 4644ft 127kts
23-Dec-19 11:20 34.028755 -118.550402 283 4611ft 131kts
23-Dec-19 11:21 34.036782 -118.591500 283 4653ft 128kts
23-Dec-19 11:22 34.044804 -118.634318 282 4633ft 131kts
23-Dec-19 11:23 34.051967 -118.673819 282 5026ft 113kts
23-Dec-19 11:24 34.059368 -118.714773 280 5031ft 128kts
23-Dec-19 11:25 34.066023 -118.757614 280 5032ft 130kts
23-Dec-19 11:26 34.072718 -118.800609 280 5034ft 130kts
23-Dec-19 11:27 34.079572 -118.843971 280 5014ft 131kts
23-Dec-19 11:28 34.086690 -118.886967 281 5021ft 130kts
23-Dec-19 11:29 34.094196 -118.929815 281 5023ft 130kts
23-Dec-19 11:30 34.101741 -118.972728 281 5024ft 130kts
23-Dec-19 11:31 34.109401 -119.015882 281 4986ft 132kts
23-Dec-19 11:32 34.115957 -119.048391 303 4869ft 59kts
23-Dec-19 11:33 34.134202 -119.062401 356 4987ft 89kts
23-Dec-19 11:34 34.135577 -119.042211 171 5014ft 94kts
23-Dec-19 11:35 34.110552 -119.047642 151 5042ft 96kts
23-Dec-19 11:36 34.118503 -119.028464 339 5041ft 98kts
23-Dec-19 11:37 34.142586 -119.044954 329 5008ft 101kts
23-Dec-19 11:38 34.136368 -119.065677 162 4974ft 97kts
23-Dec-19 11:39 34.113056 -119.049756 143 4972ft 96kts
23-Dec-19 11:40 34.122783 -119.032303 334 4960ft 94kts
23-Dec-19 11:41 34.145231 -119.048044 329 4975ft 95kts
23-Dec-19 11:42 34.143749 -119.072740 188 4941ft 96kts
23-Dec-19 11:43 34.121402 -119.057815 140 4974ft 93kts
23-Dec-19 11:44 34.117220 -119.030856 61 4986ft 105kts
23-Dec-19 11:45 34.131508 -118.994042 65 4900ft 136kts
23-Dec-19 11:46 34.146259 -118.950887 68 4627ft 135kts
23-Dec-19 11:47 34.159629 -118.909228 68 4624ft 131kts
23-Dec-19 11:48 34.172829 -118.867985 68 4623ft 131kts
23-Dec-19 11:49 34.185929 -118.826907 68 4622ft 131kts
23-Dec-19 11:50 34.199008 -118.785608 72 4619ft 131kts
23-Dec-19 11:51 34.200949 -118.744021 87 3768ft 122kts
23-Dec-19 11:52 34.201617 -118.702450 92 3514ft 129kts
23-Dec-19 11:53 34.200705 -118.658222 89 3518ft 133kts
23-Dec-19 11:54 34.200493 -118.613174 89 3511ft 133kts
23-Dec-19 11:55 34.200152 -118.569927 90 2687ft 113kts
23-Dec-19 11:56 34.199933 -118.533953 89 1735ft 96kts
23-Dec-19 11:57 34.210237 -118.515331 0 1617ft 92kts
23-Dec-19 11:58 34.239355 -118.520041 346 2079ft 111kts
23-Dec-19 11:59 34.255770 -118.507138 87 1863ft 76kts
23-Dec-19 12:00 34.242576 -118.493233 179 1577ft 84kts
23-Dec-19 12:01 34.221320 -118.491338 170 1118ft 71kts
23-Dec-19 12:02 34.210202 -118.490831 249 806ft 10kts

Navigation Log

Ident Type
Flight plan parsing failed, navigation log unavailable